x

Pensacola - 115nm Ese Of Pensacola, Fl (42039) Wave Buoy

12:50am - Thu 3rd Sep 2015 All times are CDT. -5 hours from GMT.

  • Sig Wave height 0.7ft
  • Average Period 4s
  • Wind
    7mph, 9mph gusts
  • Sea Temp 87°f
  • Air Temp 84°f
  • Sea Pressure 1015.7mb
  • Pensacola - 115nm Ese Of Pensacola, Fl
  • Pensacola - 115nm Ese Of Pensacola, Fl

More Historic Weather Station data

Upgrade to MSW Pro to gain access to the past 30 days of data for over 8000 Wavebouys and Weather Stations around the globe.

Join Pro

Comparision Forecast

View Surf forecast
   
Thu 09/03 12:50am 0.7ft  -  4s 7 9 mph 1015.7mb 87f 84f
Wed 09/02 11:50pm 0.7ft  -  4s 7
mph
1016.8mb 87f 84f
10:50pm 0.7ft  -  4s 4
mph
1016.9mb 87f 84f
9:50pm 0.7ft  -  4s 7 9 mph 1016.6mb 87f 84f
8:50pm 0.7ft  -  4s 4 7 mph 1016.7mb 87f 85f
7:50pm 0.7ft  -  4s 4
mph
1016.1mb 87f 85f
6:50pm 1ft 4s 4s 2 4 mph 1015.8mb 88f 85f
5:50pm 1ft 5s 4s 2
mph
1016.1mb 88f 85f
4:50pm 1ft 4s 4s 2 4 mph 1016.2mb 90f 85f
3:50pm 1ft 4s 4s 2
mph
1016.7mb 90f 86f
2:50pm 1ft 5s 4s  -  2 mph 1017.3mb 90f 86f
1:50pm 1ft 5s 4s  -  2 mph 1017.9mb 90f 86f
12:50pm 1ft 6s 4s 2
mph
1018.6mb 89f 85f
11:50am 1ft 6s 4s 2 4 mph 1018.8mb 88f 85f
10:50am 1ft 5s 4s 2 4 mph 1019.3mb 87f 84f
9:50am 1.3ft 5s 4s 4 7 mph 1019mb 86f 84f
8:50am 1.3ft 5s 4s 4 7 mph 1018.7mb 86f 84f
7:50am 1.3ft 6s 4s 4 7 mph 1018.7mb 86f 83f
6:50am 1.3ft 6s 4s 2
mph
1018.2mb 86f 83f
5:50am 1.3ft 6s 4s 4 7 mph 1017.6mb 86f 83f
4:50am 1.6ft 6s 4s 4 7 mph 1017.4mb 86f 82f
3:50am 1.3ft 5s 4s 2 4 mph 1017.4mb 86f 82f
2:50am 1.6ft 5s 4s 2 4 mph 1017.5mb 86f 82f
1:50am 1.6ft 6s 4s  -  2 mph 1017.6mb 86f 82f
12:50am 1.6ft 5s 4s 2
mph
1017.7mb 86f 82f
Tue 09/01 11:50pm 1.6ft 5s 4s 4 7 mph 1017.8mb 86f 82f
10:50pm 2ft 4s 4s 4 7 mph 1018mb 86f 82f
9:50pm 2ft 5s 4s 7 9 mph 1017.8mb 86f 82f
8:50pm 2.5ft 5s 4s 7 9 mph 1017.4mb 86f 83f
7:50pm 2.5ft 5s 4s 4 7 mph 1016.9mb 86f 82f
6:50pm 2.5ft 4s 4s 7 9 mph 1016.6mb 86f 83f
5:50pm 3ft 5s 4s 9 11 mph 1016.4mb 86f 83f
4:50pm 2.5ft 4s 4s 11 13 mph 1016.6mb 86f 82f
3:50pm 2.5ft 4s 4s 13 16 mph 1016.9mb 86f 83f
2:50pm 2.5ft 4s 4s 11 13 mph 1017.5mb 86f 83f
1:50pm 2.5ft 4s 4s 13 16 mph 1018.1mb 86f 83f
12:50pm 2.5ft 4s 4s 16 18 mph 1018.2mb 86f 84f
11:50am 2.5ft 4s 4s 16 20 mph 1017.8mb 86f 84f
10:50am 2ft 4s 3s 18 25 mph 1018.2mb 86f 81f
9:50am 2.5ft 4s 4s 16 18 mph 1018mb 86f 83f
8:50am 1.6ft 6s 3s 20 22 mph 1017.4mb 86f 83f
7:50am 1.3ft 5s 4s 11 16 mph 1017.2mb 86f 84f
6:50am 1.3ft 5s 4s 9 11 mph 1017mb 86f 84f
5:50am 1.6ft 5s 4s 7 9 mph 1016.7mb 86f 84f
4:50am 1.6ft 4s 4s 7
mph
1016.7mb 86f 84f
3:50am 1.6ft 4s 4s 7 11 mph 1016.5mb 86f 84f
2:50am 1.6ft 4s 4s 7 9 mph 1016.3mb 86f 84f
1:50am 2ft 4s 4s 7 9 mph 1016.4mb 86f 84f
12:50am 2ft 4s 4s 9 11 mph 1016.8mb 86f 85f
Mon 08/31 11:50pm 2ft 5s 4s 9 11 mph 1017.4mb 86f 85f
10:50pm 1.6ft 4s 4s 9 11 mph 1017.6mb 86f 84f
9:50pm 1.6ft 4s 4s 9 11 mph 1017.5mb 86f 84f
8:50pm 1.6ft 5s 4s 9 11 mph 1017.3mb 86f 85f
7:50pm 1.6ft 5s 4s 11 13 mph 1016.7mb 86f 85f
6:50pm 1.6ft 6s 4s 11 13 mph 1016.7mb 86f 84f
5:50pm 1.6ft 6s 4s 11 13 mph 1016.5mb 86f 85f
4:50pm 1.6ft 6s 4s 11 13 mph 1016.4mb 87f 85f
3:50pm 1.6ft 6s 4s 11 16 mph 1016.4mb 86f 85f
2:50pm 1.3ft 5s 3s 13 16 mph 1016.8mb 86f 85f
1:50pm 1.3ft 5s 3s 13 16 mph 1017.2mb 86f 85f
12:50pm 1.3ft 5s 3s 11 13 mph 1017.6mb 86f 84f
11:50am 1.3ft 5s 4s 11 13 mph 1017.9mb 86f 85f
10:50am 1.3ft 5s 4s 9 11 mph 1017.9mb 86f 85f
9:50am 1.3ft 5s 4s 9 11 mph 1017.6mb 86f 85f
8:50am 1.3ft 5s 4s 9 11 mph 1017.2mb 86f 85f
7:50am 1.3ft 6s 4s 11 13 mph 1016.7mb 86f 85f
6:50am 1.3ft 6s 4s 9 11 mph 1016.1mb 86f 84f
5:50am 1.3ft 5s 4s 9
mph
1015.7mb 86f 84f
4:50am 1.3ft 5s 4s 11 13 mph 1015.3mb 86f 83f
3:50am 1ft 5s 4s 11
mph
1015.2mb 86f 83f
2:50am 1ft 5s 4s 9 11 mph 1015.3mb 86f 83f
1:50am 1.3ft 6s 4s 7 9 mph 1015.6mb 86f 84f
12:50am 1ft 4s 4s 4 7 mph 1016.1mb 86f 84f
Sun 08/30 11:50pm 1.3ft 5s 4s 4 7 mph 1016.6mb 86f 84f
10:50pm 1.3ft 4s 4s 7
mph
1016.6mb 86f 84f
9:50pm 1.3ft 4s 4s 7 9 mph 1016.5mb 86f 84f
8:50pm 1.3ft 5s 4s 7 9 mph 1016.2mb 86f 84f
7:50pm 1.6ft 5s 4s 9
mph
1015.6mb 86f 83f
6:50pm 1.6ft 5s 4s 9 11 mph 1015.4mb 86f 83f
5:50pm 1.6ft 5s 4s 9 11 mph 1015.4mb 86f 83f
4:50pm 1.6ft 5s 3s 11 13 mph 1015.4mb 86f 83f
3:50pm 1.6ft 4s 3s 13 16 mph 1015.6mb 86f 83f
2:50pm 1.6ft 5s 3s 13 16 mph 1016mb 86f 82f
1:50pm 1.3ft 5s 3s 13 16 mph 1016.7mb 86f 83f
12:50pm 1ft 4s 4s 9 11 mph 1017.4mb 86f 83f
11:50am 1ft 4s 4s 9 11 mph 1017.9mb 86f 83f
10:50am 1ft 4s 4s 9 11 mph 1017.8mb 86f 83f
9:50am 1ft 6s 4s 7 9 mph 1017.5mb 86f 83f
8:50am 1ft 6s 4s 7 9 mph 1017.1mb 85f 83f
7:50am 1ft 4s 4s 7 9 mph 1017.1mb 85f 83f